Terminal Aerodrome Forecast
Issued by NWS Paducah, KY

Home | Current Version | Previous Version | Text Only | Print | Product List | Glossary On
Versions: 1 2 3 4 5 6 7 8 9 10 11 12 13
000
FTUS43 KPAH 172340
TAFEVV
TAF
KEVV 172340Z 1800/1824 VRB03KT P6SM SCT050
     FM180100 00000KT P6SM SCT250
     FM181000 00000KT 5SM BR SKC
     FM181300 28004KT P6SM SCT050=

USA.gov is the U.S. government's official web portal to all federal, state and local government web resources and services.